createdAt,value
2022-09-04T00:00:20.615Z,0.00
2022-09-04T00:01:20.656Z,0.00
2022-09-04T00:02:20.688Z,0.00
2022-09-04T00:03:20.709Z,0.00
2022-09-04T00:04:20.883Z,0.00
2022-09-04T00:05:20.828Z,0.00
2022-09-04T00:06:20.802Z,0.00
2022-09-04T00:07:21.333Z,0.00
2022-09-04T00:08:20.865Z,0.00
2022-09-04T00:09:20.869Z,0.00
2022-09-04T00:10:20.898Z,0.00
2022-09-04T00:11:20.937Z,0.00
2022-09-04T00:12:26.244Z,0.00
2022-09-04T00:14:21.023Z,0.00
2022-09-04T00:33:17.149Z,0.00
2022-09-04T00:34:16.875Z,0.00
2022-09-04T00:35:16.901Z,0.00
2022-09-04T00:36:16.929Z,0.00
2022-09-04T00:37:17.157Z,0.00
2022-09-04T00:38:17.357Z,0.00
2022-09-04T00:39:17.010Z,0.00
2022-09-04T00:40:17.043Z,0.00
2022-09-04T00:42:17.100Z,0.00
2022-09-04T00:43:17.328Z,0.00
2022-09-04T00:44:17.359Z,0.00
2022-09-04T00:45:17.187Z,0.00
2022-09-04T00:46:17.267Z,0.00
2022-09-04T00:48:18.062Z,0.00
2022-09-04T00:49:17.281Z,0.00
2022-09-04T00:50:17.308Z,0.00
2022-09-04T00:51:17.352Z,0.00
2022-09-04T00:52:17.364Z,0.00
2022-09-04T00:53:17.392Z,0.00
2022-09-04T00:54:17.423Z,0.00
2022-09-04T00:55:17.451Z,0.00
2022-09-04T00:56:17.489Z,0.00
2022-09-04T00:57:17.509Z,0.00
2022-09-04T00:58:17.593Z,0.00
2022-09-04T00:59:17.563Z,0.00
2022-09-04T01:00:17.592Z,0.00
2022-09-04T01:01:17.749Z,0.00
2022-09-04T01:02:17.985Z,0.00
2022-09-04T01:03:17.679Z,0.00
2022-09-04T01:04:17.722Z,0.00
2022-09-04T01:05:19.532Z,0.00
2022-09-04T01:06:17.761Z,0.00
2022-09-04T01:07:17.805Z,0.00
2022-09-04T01:08:17.898Z,0.00
2022-09-04T01:09:17.849Z,0.00
2022-09-04T01:10:17.873Z,0.00
2022-09-04T01:11:17.902Z,0.00
2022-09-04T01:12:17.929Z,0.00
2022-09-04T01:13:17.960Z,0.00
2022-09-04T01:14:17.988Z,0.00
2022-09-04T01:15:18.018Z,0.00
2022-09-04T01:16:18.063Z,0.00
2022-09-04T01:17:18.091Z,0.00
2022-09-04T01:18:18.131Z,0.00
2022-09-04T01:19:18.131Z,0.00
2022-09-04T01:20:18.168Z,0.00
2022-09-04T01:21:18.187Z,0.00
2022-09-04T01:22:18.213Z,0.00
2022-09-04T01:23:18.244Z,0.00
2022-09-04T01:24:18.271Z,0.00
2022-09-04T01:25:18.300Z,0.00
2022-09-04T01:26:18.338Z,0.00
2022-09-04T01:27:18.361Z,0.00
2022-09-04T01:28:18.472Z,0.00
2022-09-04T01:29:18.427Z,0.00
2022-09-04T01:30:18.441Z,0.00
2022-09-04T01:31:18.561Z,0.00
2022-09-04T01:32:18.496Z,0.00
2022-09-04T01:33:18.528Z,0.00
2022-09-04T01:34:18.553Z,0.00
2022-09-04T01:35:18.585Z,0.00
2022-09-04T01:36:18.626Z,0.00
2022-09-04T01:37:18.642Z,0.00
2022-09-04T01:38:18.679Z,0.00
2022-09-04T01:39:18.793Z,0.00
2022-09-04T01:40:18.724Z,0.00
2022-09-04T01:41:18.753Z,0.00
2022-09-04T01:42:18.780Z,0.00
2022-09-04T01:43:18.816Z,0.00
2022-09-04T01:44:18.853Z,0.00
2022-09-04T01:45:19.002Z,0.00
2022-09-04T01:46:18.907Z,0.00
2022-09-04T01:47:18.923Z,0.00
2022-09-04T01:48:18.957Z,0.00
2022-09-04T01:49:18.979Z,0.00
2022-09-04T01:50:19.211Z,0.00
2022-09-04T01:51:19.038Z,0.00
2022-09-04T01:52:19.077Z,0.00
2022-09-04T01:53:19.105Z,0.00
2022-09-04T01:54:19.121Z,0.00
2022-09-04T01:55:19.150Z,0.00
2022-09-04T01:56:19.182Z,0.00
2022-09-04T01:57:19.218Z,0.00
2022-09-04T01:58:19.234Z,0.00
2022-09-04T01:59:19.264Z,0.00
2022-09-04T02:00:19.304Z,0.00
2022-09-04T02:01:19.359Z,0.00
2022-09-04T02:02:19.386Z,0.00
2022-09-04T02:03:19.378Z,0.00
2022-09-04T02:04:19.925Z,0.00
2022-09-04T02:05:19.432Z,0.00
2022-09-04T02:06:19.458Z,0.00
2022-09-04T02:07:19.490Z,0.00
2022-09-04T02:08:19.560Z,0.00
2022-09-04T02:09:19.545Z,0.00
2022-09-04T02:10:19.573Z,0.00
2022-09-04T02:11:19.602Z,0.00
2022-09-04T02:12:19.629Z,0.00
2022-09-04T02:13:19.671Z,0.00
2022-09-04T02:14:19.684Z,0.00
2022-09-04T02:15:19.715Z,0.00
2022-09-04T02:16:19.802Z,0.00
2022-09-04T02:17:20.092Z,0.00
2022-09-04T02:18:19.958Z,0.00
2022-09-04T02:19:20.150Z,0.00
2022-09-04T02:20:19.854Z,0.00
2022-09-04T02:21:19.883Z,0.00
2022-09-04T02:22:19.913Z,0.00
2022-09-04T02:23:20.159Z,0.00
2022-09-04T02:24:19.969Z,0.00
2022-09-04T02:25:19.997Z,0.00
2022-09-04T02:26:20.343Z,0.00
2022-09-04T02:27:20.054Z,0.00
2022-09-04T02:28:20.107Z,0.00
2022-09-04T02:29:20.111Z,0.00
2022-09-04T02:30:20.137Z,0.00
2022-09-04T02:31:20.271Z,0.00
2022-09-04T02:32:20.195Z,0.00
2022-09-04T02:33:20.223Z,0.00
2022-09-04T02:34:20.250Z,0.00
2022-09-04T02:35:20.294Z,0.00
2022-09-04T02:36:20.306Z,0.00
2022-09-04T02:37:20.347Z,0.00
2022-09-04T02:38:20.426Z,0.00
2022-09-04T02:39:20.461Z,0.00
2022-09-04T02:40:20.432Z,0.00
2022-09-04T02:41:20.450Z,0.00
2022-09-04T02:42:20.689Z,0.00
2022-09-04T02:43:20.522Z,0.00
2022-09-04T02:44:20.545Z,0.00
2022-09-04T02:45:20.562Z,0.00
2022-09-04T02:46:20.657Z,0.00
2022-09-04T02:47:20.617Z,0.00
2022-09-04T02:48:20.645Z,0.00
2022-09-04T02:49:20.674Z,0.00
2022-09-04T02:50:20.702Z,0.00
2022-09-04T02:51:20.731Z,0.00
2022-09-04T02:52:20.769Z,0.00
2022-09-04T02:53:20.988Z,0.00
2022-09-04T02:54:20.829Z,0.00
2022-09-04T02:55:21.064Z,0.00
2022-09-04T02:56:20.871Z,0.00
2022-09-04T02:57:20.901Z,0.00
2022-09-04T02:58:20.927Z,0.00
2022-09-04T02:59:20.958Z,0.00
2022-09-04T03:00:21.564Z,0.00
2022-09-04T03:01:21.070Z,0.00
2022-09-04T03:02:21.090Z,0.00
2022-09-04T03:03:21.081Z,0.00
2022-09-04T03:04:21.094Z,0.00
2022-09-04T03:05:21.140Z,0.00
2022-09-04T03:06:21.152Z,0.00
2022-09-04T03:07:21.182Z,0.00
2022-09-04T03:08:21.222Z,0.00
2022-09-04T03:09:21.238Z,0.00
2022-09-04T03:11:21.293Z,0.00
2022-09-04T03:12:21.337Z,0.00
2022-09-04T03:13:21.673Z,0.00
2022-09-04T03:14:21.379Z,0.00
2022-09-04T03:15:21.407Z,0.00
2022-09-04T03:16:21.492Z,0.00
2022-09-04T03:17:21.479Z,0.00
2022-09-04T03:18:21.584Z,0.00
2022-09-04T03:19:22.341Z,0.00
2022-09-04T03:21:21.574Z,0.00
2022-09-04T03:23:22.746Z,0.00
2022-09-04T03:24:22.179Z,0.00
2022-09-04T03:25:22.106Z,0.00
2022-09-04T03:26:21.714Z,0.00
2022-09-04T04:21:32.790Z,8.00
2022-09-04T04:22:32.805Z,8.00
2022-09-04T04:24:15.395Z,12.00
2022-09-04T04:35:15.907Z,60.00
2022-09-04T04:36:16.130Z,68.00
2022-09-04T04:38:15.788Z,96.00
2022-09-04T04:39:15.817Z,104.00
2022-09-04T04:40:15.946Z,120.00
2022-09-04T04:41:15.852Z,136.00
2022-09-04T04:42:15.882Z,152.00
2022-09-04T04:43:15.907Z,172.00
2022-09-04T04:44:15.937Z,192.00
2022-09-04T04:45:15.974Z,216.00
2022-09-04T04:46:16.036Z,236.00
2022-09-04T04:47:16.019Z,260.00
2022-09-04T04:48:16.250Z,284.00
2022-09-04T04:49:16.076Z,308.00
2022-09-04T04:50:16.109Z,336.00
2022-09-04T04:51:16.131Z,364.00
2022-09-04T04:52:16.159Z,388.00
2022-09-04T04:53:16.186Z,428.00
2022-09-04T04:54:16.217Z,464.00
2022-09-04T04:55:16.244Z,512.00
2022-09-04T04:56:16.272Z,552.00
2022-09-04T04:57:16.298Z,600.00
2022-09-04T04:58:16.328Z,648.00
2022-09-04T04:59:16.353Z,696.00
2022-09-04T05:00:16.386Z,744.00
2022-09-04T05:01:16.517Z,796.00
2022-09-04T05:02:16.548Z,848.00
2022-09-04T05:03:16.465Z,904.00
2022-09-04T05:04:16.493Z,964.00
2022-09-04T05:05:16.525Z,1020.00
2022-09-04T05:06:16.563Z,1080.00
2022-09-04T05:07:16.578Z,1140.00
2022-09-04T05:08:16.606Z,1200.00
2022-09-04T05:09:16.642Z,1256.00
2022-09-04T05:10:16.663Z,1316.00
2022-09-04T05:11:16.711Z,1380.00
2022-09-04T05:12:16.734Z,1448.00
2022-09-04T05:13:16.755Z,1520.00
2022-09-04T05:15:16.816Z,1652.00
2022-09-04T05:16:19.073Z,1720.00
2022-09-04T05:17:16.875Z,1800.00
2022-09-04T05:18:17.100Z,1884.00
2022-09-04T05:19:17.129Z,1956.00
2022-09-04T05:20:17.155Z,2012.00
2022-09-04T05:21:16.984Z,2052.00
2022-09-04T05:22:17.007Z,2080.00
2022-09-04T05:23:17.040Z,2084.00
2022-09-04T05:26:17.326Z,2092.00
2022-09-04T05:27:17.147Z,2132.00
2022-09-04T05:28:17.482Z,2200.00
2022-09-04T05:29:20.437Z,2292.00
2022-09-04T05:30:17.237Z,2404.00
2022-09-04T05:32:17.496Z,2684.00
2022-09-04T05:35:17.370Z,3108.00
2022-09-04T05:36:17.807Z,3200.00
2022-09-04T05:37:17.429Z,3288.00
2022-09-04T05:42:17.777Z,3884.00
2022-09-04T05:47:17.741Z,4960.00
2022-09-04T05:48:18.210Z,5432.00
2022-09-04T05:49:19.288Z,6724.00
2022-09-04T05:50:18.307Z,8184.00
2022-09-04T05:53:18.393Z,7876.00
2022-09-04T05:54:19.025Z,10644.00
2022-09-04T05:58:18.253Z,20256.00
2022-09-04T05:59:18.056Z,10280.00
2022-09-04T06:00:18.070Z,7444.00
2022-09-04T06:01:18.098Z,7624.00
2022-09-04T06:02:18.244Z,6332.00
2022-09-04T06:04:00.702Z,9436.00
2022-09-04T06:05:00.935Z,19552.00
2022-09-04T06:06:00.760Z,23488.00
2022-09-04T06:07:00.804Z,13984.00
2022-09-04T06:08:00.830Z,6096.00
2022-09-04T06:09:00.864Z,5988.00
2022-09-04T06:10:00.888Z,6284.00
2022-09-04T06:11:00.921Z,7204.00
2022-09-04T06:13:00.977Z,10476.00
2022-09-04T06:14:00.996Z,7660.00
2022-09-04T06:15:01.034Z,8684.00
2022-09-04T06:16:01.134Z,11952.00
2022-09-04T06:17:01.284Z,9388.00
2022-09-04T06:18:01.328Z,8008.00
2022-09-04T06:19:01.140Z,8692.00
2022-09-04T06:20:01.169Z,16032.00
2022-09-04T06:22:01.227Z,14092.00
2022-09-04T06:23:03.009Z,12548.00
2022-09-04T06:24:01.502Z,13096.00
2022-09-04T06:29:05.463Z,7108.00
2022-09-04T06:30:01.461Z,6892.00
2022-09-04T06:31:01.561Z,6836.00
2022-09-04T06:32:01.518Z,6800.00
2022-09-04T06:33:01.547Z,6884.00
2022-09-04T06:34:01.576Z,7056.00
2022-09-04T06:35:01.605Z,7776.00
2022-09-04T06:36:01.636Z,7736.00
2022-09-04T06:37:01.666Z,7276.00
2022-09-04T06:38:01.693Z,7256.00
2022-09-04T06:40:02.271Z,7248.00
2022-09-04T06:46:02.661Z,7500.00
2022-09-04T07:06:05.754Z,8084.00
2022-09-04T07:07:02.557Z,8248.00
2022-09-04T07:08:02.586Z,8152.00
2022-09-04T07:09:02.618Z,7820.00
2022-09-04T07:10:03.544Z,7588.00
2022-09-04T07:11:02.677Z,7660.00
2022-09-04T07:12:02.707Z,7784.00
2022-09-04T07:13:02.740Z,7876.00
2022-09-04T07:14:02.769Z,7872.00
2022-09-04T07:15:02.802Z,7872.00
2022-09-04T07:16:02.871Z,7868.00
2022-09-04T07:17:02.863Z,7944.00
2022-09-04T07:18:02.892Z,7880.00
2022-09-04T07:19:02.937Z,7700.00
2022-09-04T07:20:02.962Z,7564.00
2022-09-04T07:21:02.990Z,7644.00
2022-09-04T07:22:03.016Z,7652.00
2022-09-04T07:23:03.050Z,7648.00
2022-09-04T07:24:03.078Z,7600.00
2022-09-04T07:25:03.111Z,7568.00
2022-09-04T07:26:03.141Z,7520.00
2022-09-04T07:27:03.174Z,7536.00
2022-09-04T07:28:03.203Z,7484.00
2022-09-04T07:29:03.236Z,7460.00
2022-09-04T07:30:03.266Z,7428.00
2022-09-04T07:31:03.330Z,7356.00
2022-09-04T07:32:03.328Z,7396.00
2022-09-04T07:33:03.362Z,7416.00
2022-09-04T07:34:03.390Z,7428.00
2022-09-04T07:36:06.207Z,7488.00
2022-09-04T07:37:06.248Z,7532.00
2022-09-04T07:38:06.469Z,7524.00
2022-09-04T07:39:06.516Z,7548.00
2022-09-04T07:41:06.359Z,7552.00
2022-09-04T07:42:06.395Z,7580.00
2022-09-04T07:43:06.436Z,7552.00
2022-09-04T07:44:06.860Z,7548.00
2022-09-04T07:46:06.533Z,7576.00
2022-09-04T07:47:07.170Z,7604.00
2022-09-04T07:48:06.600Z,7612.00
2022-09-04T07:49:06.815Z,7644.00
2022-09-04T07:50:06.663Z,7620.00
2022-09-04T07:51:06.691Z,7632.00
2022-09-04T07:52:06.709Z,7628.00
2022-09-04T07:53:11.053Z,7624.00
2022-09-04T07:54:06.775Z,7684.00
2022-09-04T07:55:06.806Z,7764.00
2022-09-04T07:56:07.038Z,7804.00
2022-09-04T07:57:06.871Z,7768.00
2022-09-04T07:58:06.915Z,7740.00
2022-09-04T07:59:07.148Z,7756.00
2022-09-04T08:00:06.981Z,7736.00
2022-09-04T08:01:07.038Z,7680.00
2022-09-04T08:02:07.072Z,7664.00
2022-09-04T08:03:07.062Z,7688.00
2022-09-04T08:04:07.096Z,7708.00
2022-09-04T08:05:07.169Z,7688.00
2022-09-04T08:06:07.158Z,7656.00
2022-09-04T08:07:11.392Z,7608.00
2022-09-04T08:11:08.186Z,7640.00
2022-09-04T08:14:34.101Z,7804.00
2022-09-04T08:15:35.461Z,7916.00
2022-09-04T08:16:34.178Z,8080.00
2022-09-04T08:17:34.201Z,8124.00
2022-09-04T08:18:34.264Z,7956.00
2022-09-04T08:19:34.291Z,8020.00
2022-09-04T08:20:34.318Z,8052.00
2022-09-04T08:21:34.343Z,8112.00
2022-09-04T08:23:27.145Z,8160.00
2022-09-04T08:24:26.993Z,8252.00
2022-09-04T08:33:23.965Z,8116.00
2022-09-04T08:34:22.969Z,8136.00
2022-09-04T08:36:10.568Z,8200.00
2022-09-04T08:37:10.603Z,8208.00
2022-09-04T08:38:10.633Z,8292.00
2022-09-04T08:39:10.673Z,8368.00
2022-09-04T08:40:10.702Z,8304.00
2022-09-04T08:41:10.736Z,8416.00
2022-09-04T08:42:10.767Z,8512.00
2022-09-04T08:43:10.805Z,8568.00
2022-09-04T08:44:10.835Z,8612.00
2022-09-04T08:45:10.873Z,8748.00
2022-09-04T08:46:10.940Z,8820.00
2022-09-04T08:47:10.938Z,8952.00
2022-09-04T08:48:11.233Z,9136.00
2022-09-04T08:49:11.008Z,9516.00
2022-09-04T08:50:11.039Z,9904.00
2022-09-04T08:51:11.087Z,10424.00
2022-09-04T08:52:11.424Z,11188.00
2022-09-04T08:53:11.142Z,12076.00
2022-09-04T08:54:11.179Z,12868.00
2022-09-04T08:55:14.307Z,14812.00
2022-09-04T08:56:12.254Z,17088.00
2022-09-04T09:02:10.716Z,29440.00
2022-09-04T09:03:10.687Z,28576.00
2022-09-04T09:04:10.721Z,28000.00
2022-09-04T09:06:10.792Z,30048.00
2022-09-04T09:11:10.952Z,34464.00
2022-09-04T09:12:10.991Z,35008.00
2022-09-04T09:13:11.023Z,33088.00
2022-09-04T09:14:15.301Z,30944.00
2022-09-04T09:15:11.098Z,28768.00
2022-09-04T09:16:12.156Z,27968.00
2022-09-04T09:18:11.214Z,26080.00
2022-09-04T09:20:11.280Z,24192.00
2022-09-04T09:23:16.016Z,22016.00
2022-09-04T09:24:12.131Z,22272.00
2022-09-04T09:25:11.444Z,24384.00
2022-09-04T09:26:11.512Z,25984.00
2022-09-04T09:27:11.518Z,26048.00
2022-09-04T09:28:11.562Z,27936.00
2022-09-04T09:29:11.603Z,28992.00
2022-09-04T09:32:14.334Z,28832.00
2022-09-04T09:33:11.727Z,29536.00
2022-09-04T09:34:11.767Z,31008.00
2022-09-04T09:37:11.872Z,36800.00
2022-09-04T09:38:11.903Z,39744.00
2022-09-04T09:39:11.942Z,41440.00
2022-09-04T09:40:11.975Z,46080.00
2022-09-04T09:44:12.941Z,69952.00
2022-09-04T09:45:12.172Z,78624.00
2022-09-04T09:48:13.488Z,45760.00
2022-09-04T09:50:12.336Z,34624.00
2022-09-04T09:54:15.105Z,26592.00
2022-09-04T09:55:12.732Z,23680.00
2022-09-04T10:05:15.505Z,10608.00
2022-09-04T10:07:13.169Z,10160.00
2022-09-04T10:08:13.210Z,10080.00
2022-09-04T10:09:13.035Z,9948.00
2022-09-04T10:10:13.075Z,9728.00
2022-09-04T10:11:13.097Z,9472.00
2022-09-04T10:13:13.390Z,9260.00
2022-09-04T10:15:14.675Z,9220.00
2022-09-04T10:17:13.938Z,8860.00
2022-09-04T10:18:13.786Z,8672.00
2022-09-04T10:21:16.890Z,8100.00
2022-09-04T10:23:13.546Z,8056.00
2022-09-04T10:25:14.327Z,7864.00
2022-09-04T10:30:14.003Z,7336.00
2022-09-04T10:34:13.941Z,7092.00
2022-09-04T10:35:14.691Z,6976.00
2022-09-04T10:38:01.605Z,6924.00
2022-09-04T10:39:01.641Z,6852.00
2022-09-04T10:40:01.724Z,6728.00
2022-09-04T10:41:01.717Z,6696.00
2022-09-04T10:42:01.749Z,6732.00
2022-09-04T10:43:01.782Z,6764.00
2022-09-04T10:44:04.845Z,6668.00
2022-09-04T10:45:04.476Z,6656.00
2022-09-04T10:46:01.938Z,6612.00
2022-09-04T10:47:01.924Z,6652.00
2022-09-04T10:48:02.178Z,6496.00
2022-09-04T10:50:02.245Z,6228.00
2022-09-04T10:51:02.279Z,6248.00
2022-09-04T10:52:02.118Z,6080.00
2022-09-04T10:53:02.556Z,6208.00
2022-09-04T10:55:03.356Z,6040.00
2022-09-04T10:58:02.529Z,6412.00
2022-09-04T11:01:02.513Z,6812.00
2022-09-04T11:02:02.504Z,6512.00
2022-09-04T11:04:02.943Z,6256.00
2022-09-04T11:05:02.559Z,6188.00
2022-09-04T11:06:02.594Z,6264.00
2022-09-04T11:07:02.627Z,6264.00
2022-09-04T11:08:03.673Z,6276.00
2022-09-04T11:09:05.316Z,6336.00
2022-09-04T11:10:02.742Z,6388.00
2022-09-04T11:11:02.775Z,6452.00
2022-09-04T11:12:02.798Z,6508.00
2022-09-04T11:13:03.043Z,6432.00
2022-09-04T11:14:02.867Z,6308.00
2022-09-04T11:15:03.778Z,6320.00
2022-09-04T11:16:02.970Z,6268.00
2022-09-04T11:17:02.968Z,6192.00
2022-09-04T11:18:02.992Z,6144.00
2022-09-04T11:19:03.027Z,6184.00
2022-09-04T11:20:03.060Z,6088.00
2022-09-04T11:21:03.095Z,6164.00
2022-09-04T11:22:03.127Z,6172.00
2022-09-04T11:23:03.162Z,6008.00
2022-09-04T11:24:03.396Z,5784.00
2022-09-04T11:25:03.430Z,5744.00
2022-09-04T11:26:03.273Z,5696.00
2022-09-04T11:27:07.937Z,5448.00
2022-09-04T11:28:03.327Z,5432.00
2022-09-04T11:29:03.362Z,5416.00
2022-09-04T11:30:48.154Z,5488.00
2022-09-04T11:31:46.330Z,5456.00
2022-09-04T11:32:46.540Z,5500.00
2022-09-04T11:33:46.065Z,5608.00
2022-09-04T11:34:46.410Z,5664.00
2022-09-04T11:35:46.136Z,5568.00
2022-09-04T11:36:46.165Z,5488.00
2022-09-04T11:37:46.611Z,5388.00
2022-09-04T11:38:46.222Z,5352.00
2022-09-04T11:39:46.337Z,5372.00
2022-09-04T11:40:46.299Z,5472.00
2022-09-04T11:41:46.338Z,5584.00
2022-09-04T11:42:46.371Z,5600.00
2022-09-04T11:43:49.623Z,5596.00
2022-09-04T11:44:46.440Z,5624.00
2022-09-04T11:45:46.502Z,5616.00
2022-09-04T11:48:50.421Z,5540.00
2022-09-04T11:50:46.641Z,5484.00
2022-09-04T11:51:47.274Z,5528.00
2022-09-04T11:53:46.734Z,5608.00
2022-09-04T11:57:46.872Z,5480.00
2022-09-04T11:58:47.110Z,5684.00
2022-09-04T12:00:46.970Z,5120.00
2022-09-04T12:03:39.663Z,6540.00
2022-09-04T12:04:39.675Z,6188.00
2022-09-04T12:05:39.682Z,6724.00
2022-09-04T12:06:39.705Z,6412.00
2022-09-04T12:07:43.231Z,6600.00
2022-09-04T12:08:39.791Z,6804.00
2022-09-04T12:09:39.816Z,6760.00
2022-09-04T12:10:39.851Z,6872.00
2022-09-04T12:11:39.882Z,7188.00
2022-09-04T12:12:39.906Z,7832.00
2022-09-04T12:13:39.972Z,8132.00
2022-09-04T12:15:40.008Z,7928.00
2022-09-04T12:16:40.393Z,8304.00
2022-09-04T12:17:40.076Z,8488.00
2022-09-04T12:19:40.358Z,8428.00
2022-09-04T12:20:40.177Z,8332.00
2022-09-04T12:21:40.425Z,8140.00
2022-09-04T12:22:40.245Z,8244.00
2022-09-04T12:24:40.311Z,8492.00
2022-09-04T12:25:40.361Z,8664.00
2022-09-04T12:27:40.427Z,8868.00
2022-09-04T12:28:40.465Z,8572.00
2022-09-04T12:29:40.482Z,8136.00
2022-09-04T12:30:40.719Z,7920.00
2022-09-04T12:31:40.595Z,7804.00
2022-09-04T12:32:40.600Z,7760.00
2022-09-04T12:33:40.834Z,7924.00
2022-09-04T12:34:40.669Z,7984.00
2022-09-04T12:36:40.736Z,8064.00
2022-09-04T12:37:40.758Z,8160.00
2022-09-04T12:38:40.804Z,8408.00
2022-09-04T12:39:40.988Z,8340.00
2022-09-04T12:40:41.071Z,8108.00
2022-09-04T12:41:40.895Z,7252.00
2022-09-04T12:42:40.928Z,7112.00
2022-09-04T12:43:40.975Z,6992.00
2022-09-04T12:44:41.008Z,6888.00
2022-09-04T12:45:41.127Z,6816.00
2022-09-04T12:46:41.386Z,6828.00
2022-09-04T12:47:41.100Z,6872.00
2022-09-04T12:48:41.145Z,6952.00
2022-09-04T12:49:41.168Z,7052.00
2022-09-04T12:50:41.202Z,7152.00
2022-09-04T12:51:41.239Z,7220.00
2022-09-04T12:52:41.270Z,7216.00
2022-09-04T12:53:41.306Z,7184.00
2022-09-04T12:54:41.341Z,7160.00
2022-09-04T12:55:41.388Z,7128.00
2022-09-04T12:58:41.490Z,6924.00
2022-09-04T12:59:41.760Z,6868.00
2022-09-04T13:01:41.882Z,6820.00
2022-09-04T13:02:41.626Z,6924.00
2022-09-04T13:03:41.656Z,7100.00
2022-09-04T13:04:42.002Z,7188.00
2022-09-04T13:05:49.840Z,7208.00
2022-09-04T13:06:41.764Z,7220.00
2022-09-04T13:07:41.781Z,7256.00
2022-09-04T13:08:41.833Z,7276.00
2022-09-04T13:09:42.169Z,7376.00
2022-09-04T13:10:41.885Z,7488.00
2022-09-04T13:11:42.239Z,7580.00
2022-09-04T13:12:41.969Z,7684.00
2022-09-04T13:13:42.000Z,7716.00
2022-09-04T13:14:42.036Z,7720.00
2022-09-04T13:15:42.064Z,7688.00
2022-09-04T13:16:42.143Z,7588.00
2022-09-04T13:17:42.132Z,7412.00
2022-09-04T13:18:42.157Z,7260.00
2022-09-04T13:19:42.186Z,7176.00
2022-09-04T13:20:42.237Z,7192.00
2022-09-04T13:21:42.260Z,7196.00
2022-09-04T13:22:42.307Z,7184.00
2022-09-04T13:23:46.273Z,7212.00
2022-09-04T13:24:44.539Z,7256.00
2022-09-04T13:25:42.608Z,7200.00
2022-09-04T13:26:42.447Z,7116.00
2022-09-04T13:27:42.468Z,7036.00
2022-09-04T13:29:42.540Z,7092.00
2022-09-04T13:30:42.571Z,7148.00
2022-09-04T13:33:42.675Z,7444.00
2022-09-04T13:34:42.707Z,7556.00
2022-09-04T13:35:42.743Z,7588.00
2022-09-04T13:36:42.762Z,7580.00
2022-09-04T13:37:42.795Z,7556.00
2022-09-04T13:38:42.840Z,7512.00
2022-09-04T13:40:42.909Z,7280.00
2022-09-04T13:41:43.132Z,7376.00
2022-09-04T13:42:42.965Z,7652.00
2022-09-04T13:43:42.996Z,7836.00
2022-09-04T13:44:43.183Z,7868.00
2022-09-04T13:45:43.279Z,7768.00
2022-09-04T13:46:43.444Z,7624.00
2022-09-04T13:47:43.163Z,7404.00
2022-09-04T13:48:43.187Z,7280.00
2022-09-04T13:49:43.199Z,7260.00
2022-09-04T13:50:43.248Z,7200.00
2022-09-04T13:51:43.482Z,7064.00
2022-09-04T13:53:43.349Z,6748.00
2022-09-04T13:54:43.381Z,6700.00
2022-09-04T13:55:43.415Z,6608.00
2022-09-04T13:56:43.753Z,6580.00
2022-09-04T13:57:43.688Z,6692.00
2022-09-04T13:58:47.413Z,7336.00
2022-09-04T14:00:43.649Z,7152.00
2022-09-04T14:01:43.605Z,7912.00
2022-09-04T14:02:43.654Z,7976.00
2022-09-04T14:03:43.732Z,8000.00
2022-09-04T14:04:43.720Z,7916.00
2022-09-04T14:05:43.751Z,7784.00
2022-09-04T14:06:43.776Z,7424.00
2022-09-04T14:07:45.282Z,6668.00
2022-09-04T14:08:44.044Z,6552.00
2022-09-04T14:09:43.888Z,6428.00
2022-09-04T14:10:43.910Z,6336.00
2022-09-04T14:11:44.261Z,6248.00
2022-09-04T14:12:46.645Z,6380.00
2022-09-04T14:13:44.011Z,6516.00
2022-09-04T14:14:44.063Z,6280.00
2022-09-04T14:15:44.863Z,6116.00
2022-09-04T14:16:44.129Z,5988.00
2022-09-04T14:17:44.145Z,5836.00
2022-09-04T14:18:45.365Z,5764.00
2022-09-04T14:19:44.224Z,5668.00
2022-09-04T14:20:44.259Z,5516.00
2022-09-04T14:21:44.290Z,5356.00
2022-09-04T14:22:44.316Z,5224.00
2022-09-04T14:23:44.346Z,5144.00
2022-09-04T14:24:44.598Z,5168.00
2022-09-04T14:25:44.458Z,5204.00
2022-09-04T14:26:44.669Z,5208.00
2022-09-04T14:27:44.495Z,5180.00
2022-09-04T14:28:44.580Z,5708.00
2022-09-04T14:29:44.561Z,5220.00
2022-09-04T14:30:44.599Z,5272.00
2022-09-04T14:31:46.613Z,5848.00
2022-09-04T14:32:45.272Z,5996.00
2022-09-04T14:33:44.696Z,6056.00
2022-09-04T14:34:44.717Z,5676.00
2022-09-04T14:35:45.069Z,5412.00
2022-09-04T14:36:44.797Z,6036.00
2022-09-04T14:37:44.816Z,5384.00
2022-09-04T14:38:44.949Z,5388.00
2022-09-04T14:39:44.922Z,5472.00
2022-09-04T14:40:44.932Z,5632.00
2022-09-04T14:41:45.269Z,5576.00
2022-09-04T14:42:45.199Z,5584.00
2022-09-04T14:43:45.025Z,5608.00
2022-09-04T14:44:45.061Z,5644.00
2022-09-04T14:45:45.094Z,5652.00
2022-09-04T14:46:49.565Z,5584.00
2022-09-04T14:47:45.167Z,5432.00
2022-09-04T14:48:45.198Z,5348.00
2022-09-04T14:49:47.078Z,5428.00
2022-09-04T14:50:45.267Z,5568.00
2022-09-04T14:51:45.294Z,5724.00
2022-09-04T14:52:45.332Z,6188.00
2022-09-04T14:53:45.369Z,6396.00
2022-09-04T14:54:45.397Z,6416.00
2022-09-04T14:55:45.428Z,6344.00
2022-09-04T14:56:45.972Z,6328.00
2022-09-04T14:58:50.129Z,6424.00
2022-09-04T14:59:46.276Z,6340.00
2022-09-04T15:00:45.898Z,6120.00
2022-09-04T15:02:45.666Z,5704.00
2022-09-04T15:03:45.801Z,5184.00
2022-09-04T15:04:45.729Z,5288.00
2022-09-04T15:05:45.746Z,5248.00
2022-09-04T15:07:07.976Z,5304.00
2022-09-04T15:07:46.430Z,5332.00
2022-09-04T15:08:46.262Z,5300.00
2022-09-04T15:10:46.233Z,5224.00
2022-09-04T15:11:45.958Z,5724.00
2022-09-04T15:12:45.990Z,5724.00
2022-09-04T15:13:46.038Z,5768.00
2022-09-04T15:14:46.054Z,5764.00
2022-09-04T15:15:46.383Z,5728.00
2022-09-04T15:16:46.324Z,5660.00
2022-09-04T15:18:46.178Z,5644.00
2022-09-04T15:19:46.210Z,5572.00
2022-09-04T15:20:46.257Z,5556.00
2022-09-04T15:21:46.489Z,5552.00
2022-09-04T15:22:46.632Z,5484.00
2022-09-04T15:26:00.217Z,5156.00
2022-09-04T15:26:46.970Z,5096.00
2022-09-04T15:28:46.723Z,4972.00
2022-09-04T15:29:46.557Z,4920.00
2022-09-04T15:30:46.589Z,4860.00
2022-09-04T15:31:47.059Z,4804.00
2022-09-04T15:32:46.851Z,4696.00
2022-09-04T15:33:46.696Z,4580.00
2022-09-04T15:35:46.748Z,4456.00
2022-09-04T15:36:46.772Z,4436.00
2022-09-04T15:37:48.372Z,4400.00
2022-09-04T15:38:46.858Z,4420.00
2022-09-04T15:41:47.155Z,4388.00
2022-09-04T15:42:46.984Z,4400.00
2022-09-04T15:43:47.018Z,4432.00
2022-09-04T15:44:47.250Z,4408.00
2022-09-04T15:45:48.184Z,4368.00
2022-09-04T15:46:47.592Z,4308.00
2022-09-04T15:47:47.148Z,4208.00
2022-09-04T15:48:47.381Z,4096.00
2022-09-04T15:49:47.901Z,4088.00
2022-09-04T15:50:47.453Z,4072.00
2022-09-04T15:51:47.287Z,4072.00
2022-09-04T15:52:47.516Z,4064.00
2022-09-04T15:53:48.061Z,4028.00
2022-09-04T15:54:47.381Z,3996.00
2022-09-04T15:55:47.415Z,3936.00
2022-09-04T15:57:47.479Z,3820.00
2022-09-04T15:58:47.513Z,3816.00
2022-09-04T15:59:47.544Z,3808.00
2022-09-04T16:00:47.888Z,3756.00
2022-09-04T16:01:47.835Z,3668.00
2022-09-04T16:02:47.766Z,3596.00
2022-09-04T16:04:47.713Z,3464.00
2022-09-04T16:05:47.945Z,3432.00
2022-09-04T16:07:48.008Z,3416.00
2022-09-04T16:10:47.911Z,3428.00
2022-09-04T16:11:47.940Z,3432.00
2022-09-04T16:12:48.381Z,3428.00
2022-09-04T16:14:48.042Z,3376.00
2022-09-04T16:15:48.510Z,3376.00
2022-09-04T16:17:48.853Z,3368.00
2022-09-04T16:18:48.179Z,3356.00
2022-09-04T16:19:48.409Z,3324.00
2022-09-04T16:21:48.682Z,3256.00
2022-09-04T16:22:48.507Z,3240.00
2022-09-04T16:23:48.340Z,3236.00
2022-09-04T16:26:48.640Z,3320.00
2022-09-04T16:28:48.508Z,3356.00
2022-09-04T16:29:48.935Z,3316.00
2022-09-04T16:30:48.911Z,3264.00
2022-09-04T16:31:48.605Z,3260.00
2022-09-04T16:34:48.903Z,3252.00
2022-09-04T16:35:48.735Z,3252.00
2022-09-04T16:36:49.373Z,3268.00
2022-09-04T16:37:50.616Z,3276.00
2022-09-04T16:39:48.919Z,3268.00
2022-09-04T16:40:49.189Z,3252.00
2022-09-04T16:42:48.969Z,3216.00
2022-09-04T16:45:55.409Z,3108.00
2022-09-04T16:47:50.142Z,3080.00
2022-09-04T16:48:49.157Z,3064.00
2022-09-04T17:00:49.962Z,2752.00
2022-09-04T17:01:50.342Z,2716.00
2022-09-04T17:04:50.786Z,2648.00
2022-09-04T17:11:55.917Z,2352.00
2022-09-04T17:12:50.658Z,2312.00